createdAt,value
2019-02-25T00:01:10.918Z,45.30
2019-02-25T00:03:40.690Z,45.17
2019-02-25T00:06:10.439Z,45.91
2019-02-25T00:08:40.235Z,45.66
2019-02-25T00:11:10.041Z,45.96
2019-02-25T00:13:39.812Z,46.08
2019-02-25T00:16:09.878Z,46.04
2019-02-25T00:18:39.626Z,45.69
2019-02-25T00:21:09.411Z,45.12
2019-02-25T00:23:39.187Z,44.85
2019-02-25T00:26:08.976Z,45.01
2019-02-25T00:28:38.767Z,45.03
2019-02-25T00:31:08.349Z,45.55
2019-02-25T00:33:38.199Z,46.06
2019-02-25T00:36:07.958Z,46.30
2019-02-25T00:38:37.738Z,46.48
2019-02-25T00:41:07.389Z,45.94
2019-02-25T00:43:37.121Z,45.42
2019-02-25T00:46:07.181Z,45.10
2019-02-25T00:48:36.969Z,44.86
2019-02-25T00:51:06.736Z,44.55
2019-02-25T00:53:36.516Z,44.55
2019-02-25T00:56:06.347Z,44.79
2019-02-25T00:58:36.158Z,44.57
2019-02-25T01:01:05.996Z,45.04
2019-02-25T01:03:35.992Z,45.63
2019-02-25T01:06:05.723Z,45.11
2019-02-25T01:08:35.534Z,45.39
2019-02-25T01:11:05.365Z,46.13
2019-02-25T01:13:35.166Z,46.13
2019-02-25T01:16:05.324Z,46.54
2019-02-25T01:18:35.150Z,47.13
2019-02-25T01:21:04.973Z,47.11
2019-02-25T01:23:34.802Z,46.81
2019-02-25T01:26:04.498Z,46.82
2019-02-25T01:28:34.291Z,46.48
2019-02-25T01:31:04.070Z,47.79
2019-02-25T01:33:33.835Z,48.20
2019-02-25T01:36:03.634Z,49.01
2019-02-25T01:38:33.452Z,49.72
2019-02-25T01:41:03.279Z,48.63
2019-02-25T01:43:33.078Z,47.65
2019-02-25T01:46:02.918Z,47.75
2019-02-25T01:48:32.727Z,48.07
2019-02-25T01:51:02.638Z,48.07
2019-02-25T01:53:32.686Z,47.55
2019-02-25T01:56:02.515Z,47.65
2019-02-25T01:58:32.255Z,48.14
2019-02-25T02:01:02.013Z,48.53
2019-02-25T02:03:31.771Z,48.37
2019-02-25T02:06:01.594Z,48.67
2019-02-25T02:08:31.386Z,48.70
2019-02-25T02:11:01.243Z,48.94
2019-02-25T02:13:31.451Z,49.37
2019-02-25T02:16:01.253Z,49.29
2019-02-25T02:18:31.047Z,49.27
2019-02-25T02:21:00.792Z,49.24
2019-02-25T02:23:30.470Z,48.78
2019-02-25T02:26:00.375Z,50.30
2019-02-25T02:28:31.146Z,50.30
2019-02-25T02:31:00.941Z,51.05
2019-02-25T02:33:30.691Z,51.21
2019-02-25T02:36:00.494Z,51.25
2019-02-25T02:38:30.275Z,50.48
2019-02-25T02:41:00.066Z,50.18
2019-02-25T02:43:29.945Z,49.61
2019-02-25T02:46:02.788Z,49.44
2019-02-25T02:48:44.556Z,49.28
2019-02-25T02:51:14.757Z,49.79
2019-02-25T02:53:44.470Z,49.96
2019-02-25T02:56:14.240Z,50.02
2019-02-25T02:58:44.035Z,51.30
2019-02-25T03:01:13.831Z,51.73
2019-02-25T03:03:43.552Z,50.88
2019-02-25T03:06:13.341Z,50.96
2019-02-25T03:08:43.134Z,50.52
2019-02-25T03:11:12.915Z,50.82
2019-02-25T03:13:42.700Z,50.64
2019-02-25T03:16:12.442Z,49.94
2019-02-25T03:18:42.121Z,49.82
2019-02-25T03:21:11.819Z,50.98
2019-02-25T03:23:41.635Z,50.58
2019-02-25T03:26:11.338Z,50.63
2019-02-25T03:28:41.395Z,50.56
2019-02-25T03:31:11.322Z,50.56
2019-02-25T03:33:41.976Z,49.45
2019-02-25T03:36:11.603Z,48.80
2019-02-25T03:38:41.489Z,50.51
2019-02-25T03:41:11.283Z,50.51
2019-02-25T03:43:41.786Z,50.10
2019-02-25T03:46:11.594Z,49.55
2019-02-25T03:48:41.395Z,48.67
2019-02-25T03:51:11.245Z,48.56
2019-02-25T03:53:40.943Z,48.56
2019-02-25T03:56:10.612Z,50.65
2019-02-25T03:58:40.499Z,50.75
2019-02-25T04:01:10.897Z,51.19
2019-02-25T04:03:40.687Z,50.17
2019-02-25T04:06:10.381Z,50.17
2019-02-25T04:08:40.177Z,50.62
2019-02-25T04:11:10.523Z,50.93
2019-02-25T04:13:40.356Z,50.58
2019-02-25T04:16:10.135Z,50.30
2019-02-25T04:18:39.916Z,50.09
2019-02-25T04:21:09.686Z,50.06
2019-02-25T04:23:39.474Z,50.00
2019-02-25T04:26:09.272Z,49.85
2019-02-25T04:28:39.089Z,49.76
2019-02-25T04:31:08.914Z,49.19
2019-02-25T04:33:39.699Z,49.70
2019-02-25T04:36:09.505Z,50.60
2019-02-25T04:38:40.128Z,50.55
2019-02-25T04:41:09.918Z,50.97
2019-02-25T04:43:39.803Z,51.00
2019-02-25T04:46:11.128Z,50.61
2019-02-25T04:48:40.941Z,50.37
2019-02-25T04:51:10.702Z,50.40
2019-02-25T04:53:40.515Z,50.62
2019-02-25T04:56:10.663Z,50.75
2019-02-25T04:58:40.446Z,50.69
2019-02-25T05:01:10.109Z,50.79
2019-02-25T05:03:39.905Z,50.92
2019-02-25T05:06:09.725Z,51.18
2019-02-25T05:08:39.518Z,51.84
2019-02-25T05:11:09.247Z,52.31
2019-02-25T05:13:38.985Z,52.86
2019-02-25T05:16:08.777Z,53.29
2019-02-25T05:18:38.523Z,53.05
2019-02-25T05:21:08.343Z,53.14
2019-02-25T05:23:41.277Z,53.44
2019-02-25T05:26:11.059Z,53.87
2019-02-25T05:28:40.812Z,54.51
2019-02-25T05:31:10.600Z,54.40
2019-02-25T05:33:40.498Z,54.68
2019-02-25T05:36:10.326Z,55.28
2019-02-25T05:38:40.170Z,55.54
2019-02-25T05:41:10.086Z,55.56
2019-02-25T05:43:39.878Z,55.33
2019-02-25T05:46:09.637Z,55.54
2019-02-25T05:48:39.323Z,56.10
2019-02-25T05:51:09.110Z,56.53
2019-02-25T05:53:38.886Z,57.66
2019-02-25T05:56:10.206Z,57.33
2019-02-25T05:58:39.946Z,56.63
2019-02-25T06:01:09.742Z,56.89
2019-02-25T06:03:39.518Z,57.52
2019-02-25T06:06:09.347Z,58.41
2019-02-25T06:08:39.153Z,57.46
2019-02-25T06:11:08.938Z,63.29
2019-02-25T06:13:38.878Z,57.97
2019-02-25T06:16:08.566Z,51.19
2019-02-25T06:18:38.370Z,48.92
2019-02-25T06:21:08.154Z,49.80
2019-02-25T06:23:38.006Z,50.46
2019-02-25T06:26:07.741Z,48.46
2019-02-25T06:28:37.517Z,47.51
2019-02-25T06:31:09.736Z,46.79
2019-02-25T06:33:39.695Z,46.20
2019-02-25T06:36:09.511Z,45.68
2019-02-25T06:38:39.287Z,45.81
2019-02-25T06:41:09.065Z,46.41
2019-02-25T06:43:38.662Z,46.65
2019-02-25T06:46:08.479Z,45.29
2019-02-25T06:48:38.317Z,44.68
2019-02-25T06:51:08.164Z,44.30
2019-02-25T06:53:40.957Z,45.25
2019-02-25T06:56:12.395Z,44.37
2019-02-25T06:58:42.497Z,41.51
2019-02-25T07:01:12.780Z,42.07
2019-02-25T07:03:43.648Z,43.08
2019-02-25T07:06:27.515Z,43.11
2019-02-25T07:08:58.905Z,43.84
2019-02-25T07:11:30.284Z,44.18
2019-02-25T07:14:04.698Z,44.27
2019-02-25T07:16:52.540Z,44.69
2019-02-25T07:19:23.865Z,44.78
2019-02-25T07:21:55.186Z,45.50
2019-02-25T07:24:32.214Z,45.03
2019-02-25T07:27:03.545Z,45.27
2019-02-25T07:29:34.925Z,45.28
2019-02-25T07:32:18.567Z,44.74
2019-02-25T07:34:49.948Z,45.30
2019-02-25T07:37:29.045Z,44.73
2019-02-25T07:40:28.856Z,44.20
2019-02-25T07:43:09.361Z,43.57
2019-02-25T07:45:52.972Z,42.26
2019-02-25T07:48:26.991Z,42.37
2019-02-25T07:51:04.443Z,41.37
2019-02-25T07:53:55.059Z,40.86
2019-02-25T07:56:35.478Z,44.34
2019-02-25T07:59:09.678Z,40.70
2019-02-25T08:01:45.005Z,40.76
2019-02-25T08:04:19.227Z,41.36
2019-02-25T08:06:50.699Z,41.35
2019-02-25T08:09:31.231Z,41.65
2019-02-25T08:12:05.285Z,41.43
2019-02-25T08:14:43.826Z,41.59
2019-02-25T08:17:24.067Z,41.53
2019-02-25T08:19:55.478Z,41.55
2019-02-25T08:22:42.068Z,41.79
2019-02-25T08:25:16.152Z,41.98
2019-02-25T08:28:04.615Z,42.31
2019-02-25T08:30:35.976Z,42.26
2019-02-25T08:33:07.494Z,42.49
2019-02-25T08:36:05.940Z,42.60
2019-02-25T08:38:38.516Z,42.19
2019-02-25T08:41:12.798Z,41.72
2019-02-25T08:43:47.045Z,41.20
2019-02-25T08:46:21.213Z,40.22
2019-02-25T08:48:52.694Z,40.98
2019-02-25T08:51:22.433Z,40.87
2019-02-25T08:53:52.202Z,39.20
2019-02-25T08:56:22.004Z,38.24
2019-02-25T08:58:51.820Z,38.34
2019-02-25T09:01:21.701Z,37.99
2019-02-25T09:03:51.428Z,37.70
2019-02-25T09:06:21.259Z,37.55
2019-02-25T09:08:51.037Z,37.41
2019-02-25T09:11:20.829Z,37.62
2019-02-25T09:13:50.653Z,37.51
2019-02-25T09:16:20.552Z,37.89
2019-02-25T09:18:50.347Z,36.67
2019-02-25T09:21:20.022Z,36.12
2019-02-25T09:23:52.339Z,35.99
2019-02-25T09:26:25.185Z,35.98
2019-02-25T09:28:57.423Z,35.66
2019-02-25T09:31:29.625Z,35.64
2019-02-25T09:33:59.400Z,35.95
2019-02-25T09:36:32.247Z,35.64
2019-02-25T09:39:02.623Z,36.23
2019-02-25T09:41:33.297Z,36.71
2019-02-25T09:44:03.144Z,36.89
2019-02-25T09:46:32.933Z,36.97
2019-02-25T09:49:03.078Z,36.91
2019-02-25T09:51:33.778Z,40.76
2019-02-25T09:54:05.590Z,42.93
2019-02-25T09:56:37.332Z,38.64
2019-02-25T09:59:06.971Z,38.05
2019-02-25T10:01:38.849Z,38.12
2019-02-25T10:04:09.626Z,38.31
2019-02-25T10:06:39.335Z,38.37
2019-02-25T10:09:09.995Z,38.36
2019-02-25T10:11:40.075Z,38.49
2019-02-25T10:14:09.892Z,38.56
2019-02-25T10:16:39.730Z,38.66
2019-02-25T10:19:09.900Z,39.06
2019-02-25T10:21:39.589Z,38.90
2019-02-25T10:24:09.399Z,38.70
2019-02-25T10:26:40.791Z,38.05
2019-02-25T10:29:10.967Z,37.86
2019-02-25T10:31:43.810Z,38.01
2019-02-25T10:34:13.844Z,37.87
2019-02-25T10:36:44.525Z,37.69
2019-02-25T10:39:17.755Z,37.76
2019-02-25T10:41:47.523Z,38.12
2019-02-25T10:44:17.931Z,37.39
2019-02-25T10:46:49.090Z,37.16
2019-02-25T10:49:19.497Z,36.92
2019-02-25T10:51:49.311Z,37.33
2019-02-25T10:54:21.661Z,37.50
2019-02-25T10:56:54.212Z,39.08
2019-02-25T10:59:23.827Z,38.70
2019-02-25T11:01:53.638Z,37.98
2019-02-25T11:04:23.907Z,38.05
2019-02-25T11:06:54.962Z,38.08
2019-02-25T11:09:35.438Z,38.04
2019-02-25T11:12:05.386Z,38.21
2019-02-25T11:14:36.509Z,38.28
2019-02-25T11:17:07.058Z,38.53
2019-02-25T11:19:38.434Z,39.03
2019-02-25T11:22:09.967Z,39.36
2019-02-25T11:24:39.779Z,39.23
2019-02-25T11:27:09.534Z,39.25
2019-02-25T11:29:40.500Z,39.82
2019-02-25T11:32:11.556Z,40.03
2019-02-25T11:34:41.379Z,40.30
2019-02-25T11:37:11.179Z,39.99
2019-02-25T11:39:41.031Z,39.68
2019-02-25T11:42:13.531Z,39.54
2019-02-25T11:44:43.147Z,40.07
2019-02-25T11:47:12.960Z,40.51
2019-02-25T11:49:42.739Z,41.25
2019-02-25T11:52:12.661Z,41.53
2019-02-25T11:54:44.146Z,40.42
2019-02-25T11:57:14.056Z,40.79
2019-02-25T11:59:44.165Z,41.19
2019-02-25T12:02:13.994Z,41.92
2019-02-25T12:04:43.894Z,42.43
2019-02-25T12:07:17.027Z,42.85
2019-02-25T12:09:48.678Z,42.61
2019-02-25T12:12:20.560Z,42.31
2019-02-25T12:14:50.378Z,42.71
2019-02-25T12:17:23.234Z,42.70
2019-02-25T12:19:54.566Z,43.16
2019-02-25T12:22:24.741Z,43.40
2019-02-25T12:24:54.965Z,43.78
2019-02-25T12:27:26.480Z,44.12
2019-02-25T12:30:01.428Z,44.30
2019-02-25T12:32:31.253Z,44.57
2019-02-25T12:35:02.204Z,44.71
2019-02-25T12:37:31.981Z,44.43
2019-02-25T12:40:04.240Z,43.83
2019-02-25T12:42:34.013Z,43.50
2019-02-25T12:45:04.507Z,43.29
2019-02-25T12:47:35.095Z,43.08
2019-02-25T12:50:07.755Z,42.49
2019-02-25T12:52:37.725Z,42.46
2019-02-25T12:55:10.374Z,42.58
2019-02-25T12:57:43.190Z,42.41
2019-02-25T13:00:17.298Z,42.22
2019-02-25T13:02:46.946Z,41.80
2019-02-25T13:05:24.179Z,41.93
2019-02-25T13:07:54.146Z,42.17
2019-02-25T13:10:24.224Z,42.21
2019-02-25T13:12:53.961Z,42.73
2019-02-25T13:15:25.641Z,41.62
2019-02-25T13:17:55.348Z,41.39
2019-02-25T13:20:24.944Z,41.58
2019-02-25T13:22:55.698Z,41.55
2019-02-25T13:25:33.235Z,41.38
2019-02-25T13:28:04.259Z,41.56
2019-02-25T13:30:35.231Z,41.88
2019-02-25T13:33:05.052Z,41.91
2019-02-25T13:35:35.494Z,41.85
2019-02-25T13:38:05.297Z,43.10
2019-02-25T13:40:35.300Z,42.30
2019-02-25T13:43:06.674Z,42.41
2019-02-25T13:45:36.466Z,42.16
2019-02-25T13:48:08.092Z,41.93
2019-02-25T13:50:38.588Z,41.86
2019-02-25T13:53:08.418Z,41.92
2019-02-25T13:55:38.108Z,42.10
2019-02-25T13:58:07.983Z,42.36
2019-02-25T14:00:37.803Z,42.59
2019-02-25T14:03:07.836Z,42.53
2019-02-25T14:05:37.705Z,42.68
2019-02-25T14:08:07.428Z,42.81
2019-02-25T14:10:37.767Z,43.13
2019-02-25T14:13:07.704Z,43.24
2019-02-25T14:15:37.507Z,43.35
2019-02-25T14:18:07.315Z,44.79
2019-02-25T14:20:37.206Z,43.58
2019-02-25T14:23:07.062Z,43.44
2019-02-25T14:25:38.385Z,43.45
2019-02-25T14:28:08.833Z,43.50
2019-02-25T14:30:38.635Z,43.65
2019-02-25T14:33:12.778Z,43.75
2019-02-25T14:35:41.656Z,43.84
2019-02-25T14:38:17.346Z,43.94
2019-02-25T14:40:46.652Z,44.02
2019-02-25T14:43:17.687Z,44.17
2019-02-25T14:45:53.107Z,44.29
2019-02-25T14:48:21.057Z,44.58
2019-02-25T14:50:51.502Z,44.52
2019-02-25T14:53:24.530Z,44.82
2019-02-25T14:55:56.009Z,44.92
2019-02-25T14:58:31.348Z,45.15
2019-02-25T15:00:59.862Z,45.79
2019-02-25T15:03:29.623Z,46.29
2019-02-25T15:05:59.523Z,46.34
2019-02-25T15:08:30.647Z,46.68
2019-02-25T15:11:02.889Z,46.89
2019-02-25T15:13:34.993Z,47.03
2019-02-25T15:16:05.236Z,47.22
2019-02-25T15:18:35.058Z,47.55
2019-02-25T15:21:06.812Z,47.79
2019-02-25T15:23:37.406Z,47.85
2019-02-25T15:26:07.212Z,47.90
2019-02-25T15:28:39.534Z,48.06
2019-02-25T15:31:11.348Z,48.18
2019-02-25T15:33:42.477Z,48.23
2019-02-25T15:36:13.546Z,48.70
2019-02-25T15:38:43.983Z,49.22
2019-02-25T15:41:14.966Z,48.56
2019-02-25T15:43:44.841Z,48.37
2019-02-25T15:46:16.649Z,48.45
2019-02-25T15:48:46.341Z,48.51
2019-02-25T15:51:18.324Z,48.81
2019-02-25T15:53:48.995Z,49.09
2019-02-25T15:56:19.318Z,49.31
2019-02-25T15:58:49.314Z,49.68
2019-02-25T16:01:19.090Z,49.95
2019-02-25T16:03:49.350Z,50.22
2019-02-25T16:06:19.447Z,50.42
2019-02-25T16:08:51.885Z,50.64
2019-02-25T16:11:25.681Z,50.86
2019-02-25T16:14:00.086Z,51.12
2019-02-25T16:16:29.738Z,51.32
2019-02-25T16:18:59.564Z,51.63
2019-02-25T16:21:31.752Z,51.88
2019-02-25T16:24:04.151Z,52.06
2019-02-25T16:26:34.284Z,52.29
2019-02-25T16:29:06.622Z,52.49
2019-02-25T16:31:37.658Z,52.72
2019-02-25T16:34:07.610Z,53.02
2019-02-25T16:36:37.463Z,53.25
2019-02-25T16:39:10.005Z,53.47
2019-02-25T16:41:41.802Z,53.65
2019-02-25T16:44:11.635Z,53.96
2019-02-25T16:46:43.550Z,54.31
2019-02-25T16:49:13.219Z,54.43
2019-02-25T16:51:43.020Z,54.60
2019-02-25T16:54:13.574Z,54.83
2019-02-25T16:56:44.710Z,54.93
2019-02-25T16:59:15.778Z,55.13
2019-02-25T17:01:46.251Z,55.40
2019-02-25T17:04:19.804Z,55.62
2019-02-25T17:06:49.149Z,55.98
2019-02-25T17:09:20.413Z,56.26
2019-02-25T17:11:50.640Z,56.76
2019-02-25T17:14:21.666Z,56.94
2019-02-25T17:16:52.023Z,57.30
2019-02-25T17:19:22.532Z,58.00
2019-02-25T17:21:52.503Z,58.15
2019-02-25T17:24:24.070Z,58.33
2019-02-25T17:26:53.891Z,58.58
2019-02-25T17:29:24.669Z,58.79
2019-02-25T17:31:56.922Z,58.87
2019-02-25T17:34:26.679Z,58.93
2019-02-25T17:36:56.885Z,59.02
2019-02-25T17:39:26.671Z,60.39
2019-02-25T17:41:57.674Z,60.42
2019-02-25T17:44:30.021Z,59.40
2019-02-25T17:47:01.930Z,59.18
2019-02-25T17:49:32.320Z,59.50
2019-02-25T17:52:06.187Z,59.54
2019-02-25T17:54:37.653Z,60.32
2019-02-25T17:57:08.055Z,60.61
2019-02-25T17:59:39.250Z,60.97
2019-02-25T18:02:10.493Z,61.09
2019-02-25T18:04:40.885Z,61.12
2019-02-25T18:07:10.786Z,61.07
2019-02-25T18:09:42.241Z,61.49
2019-02-25T18:12:12.090Z,61.72
2019-02-25T18:14:43.183Z,62.02
2019-02-25T18:17:16.667Z,62.17
2019-02-25T18:19:45.694Z,61.82
2019-02-25T18:22:17.527Z,62.29
2019-02-25T18:24:47.505Z,61.73
2019-02-25T18:27:17.477Z,61.41
2019-02-25T18:29:48.156Z,61.53
2019-02-25T18:32:18.889Z,61.75
2019-02-25T18:34:49.939Z,61.74
2019-02-25T18:37:20.391Z,62.07
2019-02-25T18:39:52.234Z,62.62
2019-02-25T18:42:22.839Z,62.49
2019-02-25T18:44:53.542Z,62.74
2019-02-25T18:47:25.595Z,62.75
2019-02-25T18:49:56.664Z,64.62
2019-02-25T18:52:29.230Z,62.52
2019-02-25T18:55:02.002Z,60.94
2019-02-25T18:57:31.379Z,61.61
2019-02-25T19:00:05.769Z,62.05
2019-02-25T19:02:37.709Z,62.18
2019-02-25T19:05:10.648Z,62.67
2019-02-25T19:07:40.646Z,62.89
2019-02-25T19:10:12.449Z,63.19
2019-02-25T19:12:43.859Z,63.52
2019-02-25T19:15:14.225Z,63.24
2019-02-25T19:17:45.757Z,63.13
2019-02-25T19:20:16.820Z,63.35
2019-02-25T19:22:46.663Z,63.62
2019-02-25T19:25:20.031Z,64.01
2019-02-25T19:27:50.142Z,64.11
2019-02-25T19:30:22.244Z,64.49
2019-02-25T19:32:52.714Z,64.47
2019-02-25T19:35:27.788Z,64.64
2019-02-25T19:37:56.886Z,65.57
2019-02-25T19:40:27.943Z,65.91
2019-02-25T19:42:59.532Z,65.76
2019-02-25T19:45:30.520Z,65.70
2019-02-25T19:48:02.264Z,65.39
2019-02-25T19:50:34.165Z,65.71
2019-02-25T19:53:05.239Z,65.54
2019-02-25T19:55:36.159Z,65.39
2019-02-25T19:58:08.465Z,64.38
2019-02-25T20:00:39.304Z,65.15
2019-02-25T20:03:09.291Z,65.38
2019-02-25T20:05:43.364Z,67.28
2019-02-25T20:08:12.947Z,64.48
2019-02-25T20:10:45.420Z,64.28
2019-02-25T20:13:17.274Z,65.79
2019-02-25T20:15:49.098Z,66.06
2019-02-25T20:18:20.692Z,67.42
2019-02-25T20:20:50.809Z,67.57
2019-02-25T20:23:22.271Z,66.95
2019-02-25T20:25:53.511Z,67.35
2019-02-25T20:28:25.064Z,67.90
2019-02-25T20:30:56.339Z,67.52
2019-02-25T20:33:30.411Z,68.14
2019-02-25T20:35:58.931Z,67.94
2019-02-25T20:38:30.086Z,68.44
2019-02-25T20:41:02.534Z,68.49
2019-02-25T20:43:32.633Z,68.38
2019-02-25T20:46:04.039Z,68.34
2019-02-25T20:48:34.506Z,67.99
2019-02-25T20:51:06.733Z,67.81
2019-02-25T20:53:37.695Z,68.15
2019-02-25T20:56:07.574Z,68.69
2019-02-25T20:58:38.317Z,68.41
2019-02-25T21:01:09.850Z,69.06
2019-02-25T21:03:43.900Z,69.38
2019-02-25T21:06:14.514Z,69.42
2019-02-25T21:08:46.569Z,68.21
2019-02-25T21:11:16.072Z,68.85
2019-02-25T21:13:46.978Z,68.83
2019-02-25T21:16:17.071Z,68.85
2019-02-25T21:18:48.688Z,70.25
2019-02-25T21:21:18.472Z,70.21
2019-02-25T21:23:48.314Z,70.31
2019-02-25T21:26:18.104Z,71.21
2019-02-25T21:28:47.893Z,71.02
2019-02-25T21:31:19.557Z,71.17
2019-02-25T21:33:50.066Z,70.99
2019-02-25T21:36:20.802Z,70.71
2019-02-25T21:38:51.616Z,71.13
2019-02-25T21:41:22.805Z,71.24
2019-02-25T21:43:54.064Z,69.91
2019-02-25T21:46:26.047Z,69.64
2019-02-25T21:48:57.550Z,69.60
2019-02-25T21:51:28.092Z,70.02
2019-02-25T21:53:59.942Z,70.11
2019-02-25T21:56:30.197Z,70.06
2019-02-25T21:59:01.499Z,69.90
2019-02-25T22:01:32.309Z,70.20
2019-02-25T22:04:02.883Z,70.40
2019-02-25T22:06:33.222Z,70.63
2019-02-25T22:09:05.057Z,71.08
2019-02-25T22:11:34.866Z,71.25
2019-02-25T22:14:04.601Z,71.33
2019-02-25T22:16:43.662Z,71.63
2019-02-25T22:19:05.885Z,73.26
2019-02-25T22:21:35.668Z,72.33
2019-02-25T22:24:07.425Z,71.10
2019-02-25T22:26:37.668Z,71.28
2019-02-25T22:29:07.524Z,71.27
2019-02-25T22:31:39.420Z,72.11
2019-02-25T22:34:12.635Z,73.52
2019-02-25T22:36:43.783Z,73.33
2019-02-25T22:39:12.747Z,72.94
2019-02-25T22:41:44.442Z,73.67
2019-02-25T22:44:14.054Z,71.80
2019-02-25T22:46:43.872Z,71.34
2019-02-25T22:49:13.702Z,72.47
2019-02-25T22:51:45.127Z,72.24
2019-02-25T22:54:17.038Z,73.09
2019-02-25T22:56:46.426Z,72.10
2019-02-25T22:59:20.045Z,71.42
2019-02-25T23:01:47.713Z,72.13
2019-02-25T23:04:19.565Z,72.40
2019-02-25T23:06:51.259Z,71.91
2019-02-25T23:09:21.313Z,72.11
2019-02-25T23:11:53.137Z,72.68
2019-02-25T23:14:23.439Z,72.65
2019-02-25T23:16:53.283Z,72.56
2019-02-25T23:19:23.179Z,72.92
2019-02-25T23:21:52.973Z,72.77
2019-02-25T23:24:26.011Z,72.59
2019-02-25T23:26:55.249Z,72.57
2019-02-25T23:29:28.422Z,72.72
2019-02-25T23:32:01.776Z,72.44
2019-02-25T23:34:28.820Z,72.67
2019-02-25T23:36:59.476Z,72.72
2019-02-25T23:39:32.034Z,72.86
2019-02-25T23:42:04.691Z,72.54
2019-02-25T23:44:32.135Z,72.76
2019-02-25T23:47:03.945Z,73.11
2019-02-25T23:49:33.972Z,73.45
2019-02-25T23:52:04.948Z,73.08
2019-02-25T23:54:34.873Z,72.80
2019-02-25T23:57:04.655Z,72.86
2019-02-25T23:59:34.472Z,73.17
